Time;durP1;ratioP1;P1;durP2;ratioP2;P2;SDS_P1;SDS_P2;PMS_P1;PMS_P2;Temp;Humidity;BMP_temperature;BMP_pressure;BME280_temperature;BME280_humidity;BME280_pressure;Samples;Min_cycle;Max_cycle;Signal;HPM_P1;HPM_P2
2023/12/06 00:00:12;;;;;;;;;12.00;12.00;;;;;10.79;78.13;100963.25;5048212;28;67340;-67
2023/12/06 00:02:37;;;;;;;;;11.50;10.50;;;;;10.87;78.38;100980.78;5049489;28;45519;-67
2023/12/06 00:05:03;;;;;;;;;12.25;10.50;;;;;10.83;78.40;100972.94;5031420;28;62029;-67
2023/12/06 00:07:28;;;;;;;;;16.00;10.00;;;;;10.75;77.83;100971.34;5052858;28;46754;-68
2023/12/06 00:09:54;;;;;;;;;11.50;11.25;;;;;10.85;77.92;100987.97;5038292;28;45491;-67
2023/12/06 00:12:19;;;;;;;;;11.00;11.00;;;;;10.80;77.86;100989.03;5037871;28;45511;-67
2023/12/06 00:14:44;;;;;;;;;11.75;11.50;;;;;10.73;78.07;100970.53;5050232;28;45482;-67
2023/12/06 00:17:10;;;;;;;;;16.25;14.50;;;;;10.83;78.37;100996.97;5039625;28;46413;-67
2023/12/06 00:19:35;;;;;;;;;13.25;11.25;;;;;10.74;78.43;100980.28;5038429;28;45333;-67
2023/12/06 00:22:01;;;;;;;;;10.00;8.75;;;;;10.73;77.94;100977.66;5037086;28;67496;-68
2023/12/06 00:24:26;;;;;;;;;9.75;9.75;;;;;10.79;78.46;100993.50;5020190;28;45321;-68
2023/12/06 00:26:51;;;;;;;;;12.50;10.75;;;;;10.72;78.33;100987.44;5070183;28;45530;-67
2023/12/06 00:29:17;;;;;;;;;10.00;8.00;;;;;10.78;78.38;100991.75;5045631;28;62853;-67
2023/12/06 00:31:43;;;;;;;;;10.75;9.75;;;;;10.78;77.97;100991.75;5045724;28;46757;-67
2023/12/06 00:34:08;;;;;;;;;12.00;11.00;;;;;10.77;77.94;100999.81;5046238;28;45429;-67
2023/12/06 00:36:33;;;;;;;;;22.25;19.50;;;;;10.74;78.06;100993.66;5042615;28;45488;-68
2023/12/06 00:38:59;;;;;;;;;17.75;16.00;;;;;10.71;77.64;100992.88;5058138;28;45467;-67
2023/12/06 00:41:24;;;;;;;;;9.25;7.25;;;;;10.73;77.64;100997.22;5052894;28;45541;-67
2023/12/06 00:43:51;;;;;;;;;10.00;10.00;;;;;10.73;77.52;100994.56;5038030;28;45388;-67
2023/12/06 00:46:17;;;;;;;;;11.75;10.75;;;;;10.82;78.08;101008.56;5038061;28;46036;-67
2023/12/06 00:48:42;;;;;;;;;9.00;9.00;;;;;10.81;77.85;101013.03;5041381;28;45769;-67
2023/12/06 00:51:07;;;;;;;;;10.50;9.50;;;;;10.81;77.97;101010.38;5025526;28;45306;-67
2023/12/06 00:53:33;;;;;;;;;8.50;8.25;;;;;10.75;78.27;101002.53;5042389;28;71426;-68
2023/12/06 00:55:59;;;;;;;;;10.00;9.50;;;;;10.73;77.88;100997.22;5074369;28;47089;-67
2023/12/06 00:58:24;;;;;;;;;7.25;5.75;;;;;10.76;77.67;101006.97;5041528;28;45324;-68
2023/12/06 01:00:49;;;;;;;;;11.25;9.50;;;;;10.73;77.86;101005.22;5059752;28;45455;-67
2023/12/06 01:03:15;;;;;;;;;10.00;10.00;;;;;10.72;77.99;101008.81;5059765;28;58228;-67
2023/12/06 01:05:40;;;;;;;;;10.75;9.75;;;;;10.71;78.20;101009.75;5055515;28;68931;-67
2023/12/06 01:08:05;;;;;;;;;8.50;8.50;;;;;10.74;77.55;101014.09;5051012;28;45323;-67
2023/12/06 01:10:30;;;;;;;;;15.50;11.50;;;;;10.70;77.67;100999.97;5022995;28;45433;-68
2023/12/06 01:12:56;;;;;;;;;15.00;11.00;;;;;10.77;77.77;101015.84;5032285;28;58135;-67
2023/12/06 01:15:21;;;;;;;;;8.25;8.25;;;;;10.79;77.86;101032.69;5039173;28;56412;-68
2023/12/06 01:17:47;;;;;;;;;10.00;10.00;;;;;10.78;77.33;101033.63;5032604;28;55735;-67
2023/12/06 01:20:12;;;;;;;;;9.75;9.75;;;;;10.66;77.43;101017.03;5029459;28;45462;-68
2023/12/06 01:22:37;;;;;;;;;14.00;11.75;;;;;10.78;77.46;101028.28;5032787;28;45589;-67
2023/12/06 01:25:03;;;;;;;;;10.00;10.00;;;;;10.80;77.85;101037.13;5024999;28;74567;-67
2023/12/06 01:27:28;;;;;;;;;9.00;9.00;;;;;10.72;77.69;101029.31;5050779;28;45310;-67
2023/12/06 01:29:53;;;;;;;;;14.75;10.75;;;;;10.75;77.71;101034.56;5037975;28;49471;-67
2023/12/06 01:32:19;;;;;;;;;7.50;7.50;;;;;10.78;77.84;101038.97;5045909;28;72012;-67
2023/12/06 01:34:44;;;;;;;;;9.50;8.75;;;;;10.63;77.43;101024.25;5053165;28;58866;-67
2023/12/06 01:37:09;;;;;;;;;9.00;8.75;;;;;10.73;77.39;101047.09;5050738;28;45423;-67
2023/12/06 01:39:34;;;;;;;;;7.75;7.50;;;;;10.68;77.79;101049.88;5042270;28;46693;-67
2023/12/06 01:42:00;;;;;;;;;8.50;8.50;;;;;10.64;77.71;101050.91;5050108;28;53185;-67
2023/12/06 01:44:26;;;;;;;;;9.00;8.00;;;;;10.69;78.08;101056.09;5038839;28;47235;-67
2023/12/06 01:46:52;;;;;;;;;9.75;9.00;;;;;10.69;77.84;101057.00;5050647;28;45468;-67
2023/12/06 01:49:18;;;;;;;;;8.00;8.00;;;;;10.66;77.31;101064.19;5060451;28;45367;-67
2023/12/06 01:51:44;;;;;;;;;8.50;8.50;;;;;10.55;77.63;101049.34;5042127;28;46016;-67
2023/12/06 01:54:09;;;;;;;;;8.00;8.00;;;;;10.61;77.66;101059.00;5041576;28;59696;-67
2023/12/06 01:56:36;;;;;;;;;10.00;10.00;;;;;10.49;77.15;101048.63;5060305;28;45320;-67
2023/12/06 01:59:02;;;;;;;;;8.25;8.25;;;;;10.58;77.50;101077.75;5041674;28;45531;-67
2023/12/06 02:01:28;;;;;;;;;7.50;7.50;;;;;10.48;77.67;101069.13;5058783;28;45351;-67
2023/12/06 02:03:54;;;;;;;;;9.50;8.50;;;;;10.59;78.23;101074.16;5043901;28;45417;-67
2023/12/06 02:06:19;;;;;;;;;9.00;9.00;;;;;10.60;77.78;101072.38;5058124;28;45504;-67
2023/12/06 02:08:46;;;;;;;;;10.00;10.00;;;;;10.51;77.52;101058.34;5043860;28;45407;-67
2023/12/06 02:11:12;;;;;;;;;8.75;8.75;;;;;10.58;77.59;101072.41;5039897;28;45380;-67
2023/12/06 02:13:37;;;;;;;;;11.00;10.75;;;;;10.66;77.40;101090.88;5039797;28;45337;-67
2023/12/06 02:16:04;;;;;;;;;7.50;7.50;;;;;10.55;76.93;101078.69;5040033;28;45596;-67
2023/12/06 02:18:30;;;;;;;;;8.75;7.00;;;;;10.50;77.46;101069.94;5022092;28;45320;-67
2023/12/06 02:20:57;;;;;;;;;10.00;9.00;;;;;10.51;77.19;101082.38;5030581;28;45529;-67
2023/12/06 02:23:29;;;;;;;;;9.25;9.00;;;;;10.57;77.47;101097.34;5041761;28;46514;-67
2023/12/06 02:25:55;;;;;;;;;9.50;9.50;;;;;10.49;77.41;101091.34;5038334;28;45494;-67
2023/12/06 02:28:20;;;;;;;;;10.00;9.25;;;;;10.48;77.54;101089.59;5024091;28;45340;-67
2023/12/06 02:30:45;;;;;;;;;8.75;8.75;;;;;10.48;77.84;101092.25;5021409;28;60260;-67
2023/12/06 02:33:11;;;;;;;;;7.25;7.25;;;;;10.39;77.43;101088.06;5034568;28;47452;-67
2023/12/06 02:35:45;;;;;;;;;9.50;9.00;;;;;10.41;77.78;101099.56;5038278;28;67264;-67
2023/12/06 02:38:14;;;;;;;;;14.75;10.75;;;;;10.38;77.53;101092.50;5058045;28;45429;-67
2023/12/06 02:40:40;;;;;;;;;14.00;10.00;;;;;10.41;77.28;101099.56;5059733;28;45455;-67
2023/12/06 02:43:06;;;;;;;;;12.75;10.00;;;;;10.35;77.81;101097.03;5035299;28;47383;-67
2023/12/06 02:45:31;;;;;;;;;11.50;10.25;;;;;10.32;77.81;101092.69;5047337;28;54285;-67
2023/12/06 02:47:56;;;;;;;;;16.25;11.00;;;;;10.45;77.83;101114.56;5058410;28;52856;-67
2023/12/06 02:50:22;;;;;;;;;11.00;10.00;;;;;10.33;77.92;101097.06;5040380;28;72661;-67
2023/12/06 02:52:47;;;;;;;;;10.50;10.50;;;;;10.37;77.29;101104.09;5050870;28;45352;-67
2023/12/06 02:55:12;;;;;;;;;14.25;11.50;;;;;10.36;77.68;101102.34;5039284;28;45278;-67
2023/12/06 02:57:38;;;;;;;;;15.00;14.75;;;;;10.40;77.95;101112.94;5039093;28;45413;-67
2023/12/06 03:00:03;;;;;;;;;11.50;11.00;;;;;10.47;77.59;101119.88;5030730;28;55519;-67
2023/12/06 03:02:29;;;;;;;;;11.00;11.00;;;;;10.36;77.70;101107.69;5054780;28;45321;-67
2023/12/06 03:04:54;;;;;;;;;12.00;11.00;;;;;10.43;77.74;101115.53;5045628;28;45311;-67
2023/12/06 03:07:19;;;;;;;;;11.00;10.25;;;;;10.39;77.64;101120.09;5054869;28;45505;-67
2023/12/06 03:09:45;;;;;;;;;11.75;9.75;;;;;10.25;77.55;101087.50;5041152;28;69992;-67
2023/12/06 03:12:10;;;;;;;;;10.25;10.25;;;;;10.46;77.69;101127.00;5025631;28;48447;-67
2023/12/06 03:14:35;;;;;;;;;13.25;11.25;;;;;10.41;77.16;101112.00;5050115;28;46115;-67
2023/12/06 03:17:01;;;;;;;;;16.00;12.00;;;;;10.53;78.02;101131.25;5036482;28;55073;-67
2023/12/06 03:19:26;;;;;;;;;15.25;13.50;;;;;10.42;77.38;101113.78;5050209;28;45347;-67
2023/12/06 03:21:51;;;;;;;;;15.25;11.25;;;;;10.30;77.60;101089.09;5039731;28;75358;-67
2023/12/06 03:24:16;;;;;;;;;17.50;12.00;;;;;10.28;77.67;101090.09;5049376;28;70178;-67
2023/12/06 03:26:42;;;;;;;;;11.50;10.50;;;;;10.50;77.73;101123.31;5036640;28;45541;-67
2023/12/06 03:29:07;;;;;;;;;11.00;11.00;;;;;10.33;77.20;101099.75;5049790;28;45398;-67
2023/12/06 03:31:32;;;;;;;;;13.25;13.25;;;;;10.47;77.79;101117.19;5036599;28;47926;-67
2023/12/06 03:33:58;;;;;;;;;9.00;8.75;;;;;10.48;77.19;101113.63;5048516;28;68861;-67
2023/12/06 03:36:23;;;;;;;;;14.75;12.00;;;;;10.40;77.31;101102.25;5044876;28;45785;-67
2023/12/06 03:38:48;;;;;;;;;12.00;11.50;;;;;10.27;77.19;101086.50;5039720;28;71927;-67
2023/12/06 03:41:13;;;;;;;;;14.75;13.00;;;;;10.24;77.53;101075.94;5045273;28;46204;-67
2023/12/06 03:43:39;;;;;;;;;11.50;10.50;;;;;10.33;77.78;101097.06;5029022;28;74705;-67
2023/12/06 03:46:07;;;;;;;;;12.25;10.75;;;;;10.33;77.37;101101.53;5056000;28;45354;-67
2023/12/06 03:48:32;;;;;;;;;12.75;10.00;;;;;10.28;77.43;101093.63;5040715;28;45423;-67
2023/12/06 03:50:58;;;;;;;;;9.75;9.00;;;;;10.37;77.39;101105.88;5036537;28;65116;-67
2023/12/06 03:53:23;;;;;;;;;11.75;11.75;;;;;10.34;77.45;101105.94;5039332;28;45352;-67
2023/12/06 03:55:48;;;;;;;;;10.25;9.00;;;;;10.34;77.26;101104.19;5058281;28;45271;-67
2023/12/06 03:58:14;;;;;;;;;14.25;11.00;;;;;10.15;77.35;101069.03;5049193;28;45257;-67
2023/12/06 04:00:39;;;;;;;;;10.75;9.00;;;;;10.30;77.41;101094.44;5051291;28;60882;-67
2023/12/06 04:03:07;;;;;;;;;11.25;9.25;;;;;10.35;77.10;101094.38;5038458;28;45320;-67
2023/12/06 04:05:32;;;;;;;;;11.50;11.00;;;;;10.33;76.59;101102.41;5049785;28;48410;-67
2023/12/06 04:07:58;;;;;;;;;13.25;9.25;;;;;10.25;76.64;101099.03;5048741;28;45692;-67
2023/12/06 04:10:23;;;;;;;;;9.25;9.25;;;;;10.25;76.53;101098.16;5036577;28;46635;-67
2023/12/06 04:12:48;;;;;;;;;8.00;8.00;;;;;10.18;76.83;101097.44;5039475;28;62288;-67
2023/12/06 04:15:14;;;;;;;;;10.25;8.25;;;;;10.24;76.68;101107.06;5055538;28;45641;-67
2023/12/06 04:17:40;;;;;;;;;9.50;8.25;;;;;10.22;76.55;101115.09;5030381;28;45466;-67
2023/12/06 04:20:05;;;;;;;;;14.00;9.75;;;;;10.24;76.87;101109.72;5055068;28;45343;-67
2023/12/06 04:22:31;;;;;;;;;9.00;9.00;;;;;10.12;76.64;101097.59;5061417;28;45606;-67
2023/12/06 04:24:56;;;;;;;;;8.00;7.00;;;;;10.18;77.04;101110.78;5036984;28;45575;-67
2023/12/06 04:27:21;;;;;;;;;8.75;8.00;;;;;10.18;76.49;101116.13;5071729;28;45541;-67
2023/12/06 04:29:47;;;;;;;;;12.75;10.25;;;;;10.18;76.60;101116.97;5044081;28;69132;-67
2023/12/06 04:32:12;;;;;;;;;3.75;3.75;;;;;10.10;77.30;101099.41;5052157;28;45312;-67
2023/12/06 04:34:47;;;;;;;;;11.75;9.75;;;;;10.20;76.99;101117.81;5044580;28;45292;-67
2023/12/06 04:37:12;;;;;;;;;12.00;9.75;;;;;10.26;77.18;101126.59;5034782;28;45333;-67
2023/12/06 04:39:37;;;;;;;;;8.75;8.75;;;;;10.12;76.62;101105.59;5042475;28;71398;-67
2023/12/06 04:42:03;;;;;;;;;14.75;13.00;;;;;10.17;77.14;101107.25;5060745;28;67644;-67
2023/12/06 04:44:28;;;;;;;;;3.75;3.00;;;;;10.22;76.68;101117.78;5025961;28;45291;-67
2023/12/06 04:46:54;;;;;;;;;8.50;8.50;;;;;10.24;77.00;101121.31;5041426;28;45457;-67
2023/12/06 04:49:19;;;;;;;;;8.25;8.25;;;;;10.31;76.44;101128.22;5040289;28;69133;-67
2023/12/06 04:51:44;;;;;;;;;10.75;10.00;;;;;10.29;76.58;101130.06;5031743;28;46095;-67
2023/12/06 04:54:09;;;;;;;;;13.50;9.75;;;;;10.31;76.56;101138.03;5042223;28;67619;-67
2023/12/06 04:56:35;;;;;;;;;13.00;10.00;;;;;10.22;76.33;101124.91;5049247;28;67560;-67
2023/12/06 04:59:00;;;;;;;;;9.00;8.00;;;;;10.20;76.38;101133.81;5047318;28;46130;-67
2023/12/06 05:01:25;;;;;;;;;11.00;10.00;;;;;10.17;76.73;101133.03;5042429;28;65145;-67
2023/12/06 05:03:51;;;;;;;;;16.00;9.75;;;;;10.12;76.39;101140.25;5029836;28;45711;-67
2023/12/06 05:06:16;;;;;;;;;11.25;11.00;;;;;10.17;76.67;101141.03;5042105;28;57680;-67
2023/12/06 05:08:41;;;;;;;;;10.25;9.25;;;;;9.92;76.80;101108.72;5029305;28;46265;-67
2023/12/06 05:11:06;;;;;;;;;9.00;8.75;;;;;10.12;76.46;101145.59;5042016;28;72378;-67
2023/12/06 05:13:32;;;;;;;;;10.75;10.75;;;;;10.11;76.68;101155.41;5028424;28;69703;-67
2023/12/06 05:15:57;;;;;;;;;16.00;9.00;;;;;10.06;75.98;101145.75;5051206;28;65672;-67
2023/12/06 05:18:22;;;;;;;;;8.25;7.25;;;;;10.09;76.53;101161.66;5039702;28;56464;-67
2023/12/06 05:20:47;;;;;;;;;10.50;9.75;;;;;10.00;76.64;101157.44;5049844;28;57862;-67
2023/12/06 05:23:13;;;;;;;;;8.25;7.00;;;;;9.95;76.37;101149.53;5050726;28;59265;-67
2023/12/06 05:25:38;;;;;;;;;9.50;9.00;;;;;10.06;76.58;101170.63;5034003;28;51632;-67
2023/12/06 05:28:03;;;;;;;;;13.00;11.75;;;;;10.05;76.79;101173.34;5039431;28;73170;-67
2023/12/06 05:30:29;;;;;;;;;9.75;7.75;;;;;9.84;76.06;101140.94;5040811;28;45331;-67
2023/12/06 05:32:54;;;;;;;;;9.25;8.00;;;;;9.94;76.36;101173.56;5053749;28;57538;-67
2023/12/06 05:35:20;;;;;;;;;10.25;10.25;;;;;9.82;76.67;101159.63;5022924;28;45501;-67
2023/12/06 05:37:45;;;;;;;;;10.00;8.25;;;;;9.91;76.44;101176.34;5055636;28;47583;-67
2023/12/06 05:40:12;;;;;;;;;10.00;9.00;;;;;9.90;76.64;101183.44;5052232;28;45403;-67
2023/12/06 05:42:37;;;;;;;;;10.00;9.00;;;;;9.88;76.35;101192.41;5040555;28;45304;-67
2023/12/06 05:45:05;;;;;;;;;4.00;3.50;;;;;9.85;76.35;101192.47;5039534;28;73496;-67
2023/12/06 05:47:30;;;;;;;;;8.00;6.25;;;;;9.82;76.72;101185.38;5037818;28;46182;-67
2023/12/06 05:49:55;;;;;;;;;9.25;9.25;;;;;9.82;76.47;101182.72;5042304;28;45338;-67
2023/12/06 05:52:21;;;;;;;;;10.00;7.75;;;;;9.79;76.49;101177.50;5059181;28;45420;-67
2023/12/06 05:54:46;;;;;;;;;13.50;9.25;;;;;9.87;76.73;101193.28;5042388;28;45554;-67
2023/12/06 05:57:11;;;;;;;;;11.00;8.50;;;;;9.81;77.02;101184.53;5027186;28;72062;-67
2023/12/06 05:59:37;;;;;;;;;12.00;12.00;;;;;9.83;76.43;101188.03;5036243;28;45335;-67
2023/12/06 06:02:02;;;;;;;;;10.00;9.75;;;;;9.78;76.68;101192.59;5034801;28;45429;-67
2023/12/06 06:04:28;;;;;;;;;11.25;9.00;;;;;9.86;77.08;101208.44;5042758;28;45513;-67
2023/12/06 06:06:53;;;;;;;;;14.50;12.50;;;;;9.76;77.34;101188.22;5041886;28;47119;-67
2023/12/06 06:09:20;;;;;;;;;12.50;9.25;;;;;9.84;76.79;101204.94;5052456;28;61380;-67
2023/12/06 06:11:45;;;;;;;;;10.00;9.25;;;;;9.84;76.43;101202.25;5039722;28;45351;-67
2023/12/06 06:14:10;;;;;;;;;9.00;9.00;;;;;9.81;76.93;101191.66;5039915;28;45391;-67
2023/12/06 06:16:35;;;;;;;;;12.25;8.25;;;;;9.77;77.25;101188.19;5039850;28;46045;-67
2023/12/06 06:19:01;;;;;;;;;10.25;10.00;;;;;9.81;76.78;101199.66;5053491;28;64147;-67
2023/12/06 06:21:26;;;;;;;;;12.25;10.75;;;;;9.87;76.71;101207.50;5038371;28;45416;-67
2023/12/06 06:23:52;;;;;;;;;11.75;8.75;;;;;9.82;76.92;101209.38;5046535;28;59249;-67
2023/12/06 06:26:17;;;;;;;;;13.50;11.00;;;;;9.78;76.38;101202.38;5035329;28;47326;-67
2023/12/06 06:28:42;;;;;;;;;14.00;12.50;;;;;9.67;76.76;101189.25;5052982;28;45450;-67
2023/12/06 06:31:08;;;;;;;;;13.00;10.25;;;;;9.80;76.83;101221.88;5041398;28;45332;-67
2023/12/06 06:33:33;;;;;;;;;11.50;10.00;;;;;9.69;76.78;101199.91;5052846;28;45350;-67
2023/12/06 06:35:59;;;;;;;;;12.00;10.00;;;;;9.79;77.08;101226.34;5021631;28;71495;-67
2023/12/06 06:38:24;;;;;;;;;11.25;10.25;;;;;9.72;77.13;101215.84;5058404;28;73738;-67
2023/12/06 06:40:49;;;;;;;;;9.50;8.25;;;;;9.72;77.35;101216.72;5040464;28;45417;-67
2023/12/06 06:43:15;;;;;;;;;9.00;9.00;;;;;9.81;77.36;101239.66;5039585;28;45320;-67
2023/12/06 06:45:42;;;;;;;;;6.50;4.75;;;;;9.56;76.85;101193.97;5034872;28;65445;-67
2023/12/06 06:48:09;;;;;;;;;9.25;8.00;;;;;9.74;76.67;101232.66;5051648;28;45419;-67
2023/12/06 06:50:34;;;;;;;;;10.75;9.00;;;;;9.74;76.62;101241.56;5039974;28;45406;-67
2023/12/06 06:53:01;;;;;;;;;9.00;9.00;;;;;9.83;76.89;101253.81;5043828;28;52830;-68
2023/12/06 06:55:26;;;;;;;;;8.25;7.75;;;;;9.79;76.40;101253.00;5044076;28;46107;-67
2023/12/06 06:57:51;;;;;;;;;9.25;7.25;;;;;9.77;76.49;101249.50;5031270;28;45817;-65
2023/12/06 07:00:17;;;;;;;;;10.25;9.00;;;;;9.77;76.41;101259.28;5059247;28;45383;-65
2023/12/06 07:02:42;;;;;;;;;7.00;7.00;;;;;9.81;76.66;101261.84;5024850;28;45385;-66
2023/12/06 07:05:12;;;;;;;;;9.00;8.00;;;;;9.79;76.63;101258.34;5044814;28;45390;-66
2023/12/06 07:07:38;;;;;;;;;7.75;7.75;;;;;9.72;76.88;101258.50;5047717;28;45406;-66
2023/12/06 07:10:05;;;;;;;;;10.25;9.00;;;;;9.65;76.89;101247.06;5052272;28;45369;-65
2023/12/06 07:12:32;;;;;;;;;8.75;8.75;;;;;9.78;76.17;101267.25;5051326;28;45576;-65
2023/12/06 07:14:59;;;;;;;;;10.00;9.00;;;;;9.63;76.57;101247.09;5042723;28;75076;-65
2023/12/06 07:17:25;;;;;;;;;10.00;9.75;;;;;9.75;76.87;101279.75;5043880;28;45581;-65
2023/12/06 07:19:50;;;;;;;;;9.00;8.50;;;;;9.70;76.55;101262.97;5051035;28;45357;-65
2023/12/06 07:22:16;;;;;;;;;8.25;7.75;;;;;9.77;76.61;101281.50;5045780;28;45396;-65
2023/12/06 07:24:41;;;;;;;;;9.50;8.25;;;;;9.68;76.74;101264.81;5034258;28;56272;-65
2023/12/06 07:27:07;;;;;;;;;11.25;9.00;;;;;9.77;76.34;101294.84;5052629;28;45383;-65
2023/12/06 07:29:32;;;;;;;;;10.75;9.25;;;;;9.77;76.27;101297.50;5030734;28;59093;-65
2023/12/06 07:31:58;;;;;;;;;12.00;8.75;;;;;9.73;76.23;101298.44;5033287;28;45391;-65
2023/12/06 07:34:23;;;;;;;;;8.75;8.75;;;;;9.62;75.87;101284.44;5051955;28;45570;-65
2023/12/06 07:36:49;;;;;;;;;7.25;6.75;;;;;9.64;76.48;101293.31;5028471;28;45410;-65
2023/12/06 07:39:14;;;;;;;;;10.00;10.00;;;;;9.52;76.07;101269.56;5033547;28;45432;-65
2023/12/06 07:41:40;;;;;;;;;9.50;9.25;;;;;9.49;76.72;101286.50;5047699;28;45422;-65
2023/12/06 07:44:06;;;;;;;;;8.00;7.75;;;;;9.53;76.37;101279.31;5037705;28;46705;-65
2023/12/06 07:46:31;;;;;;;;;9.25;9.25;;;;;9.41;76.06;101275.97;5042424;28;45647;-67
2023/12/06 07:48:57;;;;;;;;;5.50;3.00;;;;;9.58;76.45;101304.97;5053667;28;45544;-67
2023/12/06 07:51:22;;;;;;;;;10.00;9.00;;;;;9.23;76.51;101241.69;5032173;28;45775;-67
2023/12/06 07:53:47;;;;;;;;;9.00;9.00;;;;;9.65;76.90;101316.38;5051079;28;45531;-67
2023/12/06 07:56:13;;;;;;;;;10.00;8.50;;;;;9.39;76.45;101268.94;5050309;28;45426;-67
2023/12/06 07:58:38;;;;;;;;;10.00;9.25;;;;;9.42;76.77;101275.06;5048032;28;45377;-67
2023/12/06 08:01:05;;;;;;;;;12.50;9.25;;;;;9.52;76.52;101286.44;5051788;28;45729;-67
2023/12/06 08:03:31;;;;;;;;;10.50;9.00;;;;;9.58;76.50;101309.41;5049989;28;45656;-67
2023/12/06 08:05:59;;;;;;;;;12.50;12.50;;;;;9.54;76.05;101310.38;5041766;28;45783;-67
2023/12/06 08:08:27;;;;;;;;;8.50;8.50;;;;;9.38;76.26;101289.34;5058559;28;45339;-67
2023/12/06 08:10:53;;;;;;;;;13.00;12.00;;;;;9.57;76.84;101321.88;5029086;28;45550;-67
2023/12/06 08:13:18;;;;;;;;;14.75;13.25;;;;;9.51;76.79;101313.13;5048500;28;45381;-67
2023/12/06 08:15:44;;;;;;;;;6.25;3.25;;;;;9.53;76.58;101322.81;5060098;28;45345;-68
2023/12/06 08:18:09;;;;;;;;;8.50;7.00;;;;;9.45;76.78;101308.75;5059081;28;45695;-67
2023/12/06 08:20:35;;;;;;;;;9.75;9.00;;;;;9.45;76.53;101323.00;5058125;28;45466;-68
2023/12/06 08:23:01;;;;;;;;;11.75;11.75;;;;;9.41;77.21;101323.06;5048852;28;46100;-67
2023/12/06 08:25:26;;;;;;;;;15.25;10.75;;;;;9.48;77.13;101346.03;5049168;28;45260;-68
2023/12/06 08:27:52;;;;;;;;;12.75;12.75;;;;;9.43;77.34;101334.56;5039069;28;70474;-67
2023/12/06 08:30:17;;;;;;;;;13.50;12.00;;;;;9.39;76.83;101344.41;5058959;28;45462;-67
2023/12/06 08:32:42;;;;;;;;;14.75;12.25;;;;;9.36;77.10;101341.78;5041310;28;47543;-67
2023/12/06 08:35:08;;;;;;;;;11.00;11.00;;;;;9.33;77.28;101336.50;5051662;28;46154;-67
2023/12/06 08:37:33;;;;;;;;;15.50;11.50;;;;;9.30;77.08;101331.22;5056486;28;45543;-67
2023/12/06 08:39:58;;;;;;;;;17.50;12.50;;;;;9.34;77.89;101338.28;5043502;28;45554;-67
2023/12/06 08:42:23;;;;;;;;;10.75;10.00;;;;;9.41;77.47;101347.91;5037984;28;70632;-64
2023/12/06 08:44:50;;;;;;;;;13.75;12.25;;;;;9.46;77.63;101351.38;5056697;28;62097;-66
2023/12/06 08:47:17;;;;;;;;;13.00;9.75;;;;;9.28;77.47;101325.06;5058818;28;45458;-66
2023/12/06 08:49:42;;;;;;;;;10.75;10.00;;;;;9.45;77.72;101356.72;5043515;28;45470;-66
2023/12/06 08:52:08;;;;;;;;;13.25;12.25;;;;;9.42;77.78;101352.34;5046711;28;54755;-67
2023/12/06 08:54:34;;;;;;;;;10.00;9.25;;;;;9.46;77.77;101355.84;5036917;28;45512;-67
2023/12/06 08:57:00;;;;;;;;;14.25;12.75;;;;;9.46;77.58;101361.16;5040145;28;45470;-67
2023/12/06 08:59:25;;;;;;;;;10.50;10.50;;;;;9.46;77.51;101353.16;5050900;28;45410;-67
2023/12/06 09:01:50;;;;;;;;;8.50;8.50;;;;;9.52;77.55;101365.50;5040199;28;45380;-67
2023/12/06 09:04:16;;;;;;;;;13.00;12.50;;;;;9.43;77.45;101347.88;5058413;28;45702;-67
2023/12/06 09:06:41;;;;;;;;;13.75;13.25;;;;;9.47;77.56;101344.25;5057408;28;45800;-67
2023/12/06 09:09:07;;;;;;;;;12.25;12.00;;;;;9.53;77.72;101354.81;5062047;28;48358;-67
2023/12/06 09:11:33;;;;;;;;;12.25;9.00;;;;;9.52;77.41;101360.16;5045424;28;46436;-67
2023/12/06 09:13:59;;;;;;;;;10.50;10.50;;;;;9.49;77.29;101355.78;5059620;28;45673;-67
2023/12/06 09:16:24;;;;;;;;;15.25;12.50;;;;;9.45;77.53;101335.41;5058554;28;45690;-67
2023/12/06 09:18:50;;;;;;;;;11.75;10.75;;;;;9.46;77.21;101347.84;5059825;28;45547;-67
2023/12/06 09:21:15;;;;;;;;;14.50;13.00;;;;;9.45;77.61;101346.97;5046622;28;46256;-67
2023/12/06 09:23:40;;;;;;;;;14.75;12.75;;;;;9.47;77.17;101341.59;5049383;28;46635;-67
2023/12/06 09:26:06;;;;;;;;;13.50;12.75;;;;;9.49;77.36;101339.78;5053503;28;45406;-67
2023/12/06 09:28:31;;;;;;;;;15.00;15.00;;;;;9.40;77.53;101332.81;5052655;28;45434;-67
2023/12/06 09:30:57;;;;;;;;;15.50;14.00;;;;;9.56;77.20;101370.75;5049379;28;45407;-67
2023/12/06 09:33:22;;;;;;;;;15.00;14.00;;;;;9.59;77.45;101369.81;5027832;28;45906;-66
2023/12/06 09:35:47;;;;;;;;;12.50;10.25;;;;;9.53;77.49;101365.47;5056815;28;67251;-66
2023/12/06 09:38:13;;;;;;;;;14.00;11.00;;;;;9.18;77.50;101300.38;5051195;28;45640;-66
2023/12/06 09:40:38;;;;;;;;;17.00;15.50;;;;;9.54;77.32;101361.91;5044725;28;45843;-66
2023/12/06 09:43:04;;;;;;;;;18.50;15.00;;;;;9.56;77.23;101349.44;5027410;28;45477;-66
2023/12/06 09:45:29;;;;;;;;;18.50;15.50;;;;;9.59;77.19;101360.03;5037733;28;45379;-66
2023/12/06 09:47:55;;;;;;;;;19.75;15.25;;;;;9.54;77.16;101361.00;5031491;28;54990;-66
2023/12/06 09:50:21;;;;;;;;;14.75;12.50;;;;;9.44;77.42;101355.84;5047158;28;45359;-66
2023/12/06 09:52:55;;;;;;;;;19.50;16.75;;;;;9.45;77.24;101351.41;5046834;28;45670;-66
2023/12/06 09:55:25;;;;;;;;;19.00;15.25;;;;;9.60;77.04;101377.75;5050888;28;45486;-66
2023/12/06 09:57:56;;;;;;;;;13.25;13.25;;;;;9.49;77.00;101374.44;5048202;28;45728;-66
2023/12/06 10:00:23;;;;;;;;;18.00;15.00;;;;;9.26;77.35;101343.72;5053760;28;45548;-66
2023/12/06 10:02:52;;;;;;;;;16.50;14.75;;;;;9.54;77.25;101387.66;5059071;28;45457;-66
2023/12/06 10:05:17;;;;;;;;;21.75;17.50;;;;;9.58;77.63;101390.25;5054335;28;45586;-66
2023/12/06 10:07:43;;;;;;;;;13.75;13.75;;;;;9.51;77.28;101377.09;5059365;28;45314;-66
2023/12/06 10:10:14;;;;;;;;;19.25;15.50;;;;;9.53;76.54;101372.59;5034777;28;48522;-65
2023/12/06 10:12:50;;;;;;;;;16.50;12.75;;;;;9.59;77.37;101397.34;5049201;28;45753;-66
2023/12/06 10:15:16;;;;;;;;;22.00;16.75;;;;;9.58;76.74;101386.72;5047633;28;45387;-66
2023/12/06 10:17:42;;;;;;;;;16.00;15.50;;;;;9.43;76.42;101366.53;5038298;28;45384;-66
2023/12/06 10:20:08;;;;;;;;;15.50;15.50;;;;;9.60;76.79;101393.75;5046669;28;45369;-65
2023/12/06 10:22:35;;;;;;;;;15.50;14.50;;;;;9.58;76.88;101389.38;5053955;28;45399;-66
2023/12/06 10:25:00;;;;;;;;;18.00;14.00;;;;;9.67;76.85;101399.00;5041590;28;45419;-66
2023/12/06 10:27:27;;;;;;;;;17.50;17.25;;;;;9.56;77.00;101375.22;5046795;28;45453;-66
2023/12/06 10:29:52;;;;;;;;;16.00;15.25;;;;;9.63;76.93;101382.19;5056883;28;46180;-69
2023/12/06 10:32:19;;;;;;;;;16.00;15.00;;;;;9.70;76.93;101380.28;5038726;28;45707;-66
2023/12/06 10:34:46;;;;;;;;;19.25;15.25;;;;;9.67;76.82;101372.34;5054227;28;45445;-66
2023/12/06 10:37:12;;;;;;;;;17.75;16.00;;;;;9.84;76.99;101394.25;5057331;28;45613;-66
2023/12/06 10:39:39;;;;;;;;;21.50;16.75;;;;;9.89;76.32;101395.03;5052855;28;46949;-66
2023/12/06 10:42:14;;;;;;;;;16.00;15.25;;;;;9.82;76.61;101383.59;5039475;28;45375;-66
2023/12/06 10:44:40;;;;;;;;;16.25;15.75;;;;;9.83;77.02;101369.34;5054200;28;46529;-66
2023/12/06 10:47:06;;;;;;;;;22.25;17.75;;;;;9.88;76.72;101373.72;5056040;28;45423;-66
2023/12/06 10:49:37;;;;;;;;;20.50;14.50;;;;;9.97;76.69;101390.44;5053369;28;45320;-66
2023/12/06 10:52:04;;;;;;;;;15.00;12.75;;;;;10.01;76.42;101389.44;5048727;28;45407;-66
2023/12/06 10:54:29;;;;;;;;;16.25;14.75;;;;;10.06;76.82;101397.38;5038243;28;46437;-67
2023/12/06 10:56:56;;;;;;;;;18.25;15.00;;;;;9.81;76.34;101340.97;5042263;28;45511;-66
2023/12/06 10:59:25;;;;;;;;;21.50;17.50;;;;;10.10;75.67;101387.50;5050899;28;45566;-66
2023/12/06 11:01:52;;;;;;;;;20.75;17.50;;;;;10.06;75.65;101368.03;5045822;28;45785;-67
2023/12/06 11:04:18;;;;;;;;;20.25;16.75;;;;;10.11;75.83;101384.81;5044678;28;45538;-68
2023/12/06 11:07:20;;;;;;;;;19.50;16.00;;;;;10.15;75.69;101386.50;5050019;28;45456;-68
2023/12/06 11:10:15;;;;;;;;;20.75;18.00;;;;;10.18;75.54;101386.44;5038688;28;47199;-68
2023/12/06 11:13:18;;;;;;;;;22.00;18.50;;;;;10.22;75.56;101381.91;5023130;28;45368;-68